Time;durP1;ratioP1;P1;durP2;ratioP2;P2;SDS_P1;SDS_P2;PMS_P1;PMS_P2;Temp;Humidity;BMP_temperature;BMP_pressure;BME280_temperature;BME280_humidity;BME280_pressure;Samples;Min_cycle;Max_cycle;Signal;HPM_P1;HPM_P2
2022/01/02 00:02:16;;;;;;;0.30;0.20;;;;;;;9.06;100.00;100846.59;5015191;28;20478;-76
2022/01/02 00:04:48;;;;;;;0.60;0.60;;;;;;;9.01;100.00;100832.50;5005362;28;20542;-76
2022/01/02 00:07:18;;;;;;;0.30;0.20;;;;;;;9.08;100.00;100840.38;5020881;28;20468;-76
2022/01/02 00:09:50;;;;;;;0.73;0.70;;;;;;;9.10;100.00;100849.19;5042373;28;20448;-76
2022/01/02 00:12:22;;;;;;;0.50;0.50;;;;;;;9.01;100.00;100843.97;5028935;28;20499;-76
2022/01/02 00:14:55;;;;;;;0.30;0.20;;;;;;;8.97;100.00;100852.88;5008082;28;20806;-76
2022/01/02 00:17:23;;;;;;;0.50;0.50;;;;;;;8.93;100.00;100856.47;5028090;28;20461;-76
2022/01/02 00:19:57;;;;;;;0.40;0.40;;;;;;;8.89;100.00;100834.41;5008773;28;20451;-76
2022/01/02 00:22:35;;;;;;;0.30;0.20;;;;;;;8.94;100.00;100825.53;5020833;28;20463;-77
2022/01/02 00:25:08;;;;;;;0.30;0.20;;;;;;;8.97;100.00;100826.38;5015859;28;20473;-77
2022/01/02 00:27:35;;;;;;;3.07;1.60;;;;;;;8.94;100.00;100830.84;5033057;28;20479;-77
2022/01/02 00:30:06;;;;;;;0.30;0.20;;;;;;;9.03;100.00;100822.75;5009757;28;20456;-76
2022/01/02 00:32:35;;;;;;;0.30;0.20;;;;;;;8.98;100.00;100836.06;5015695;28;20506;-76
2022/01/02 00:35:02;;;;;;;0.30;0.20;;;;;;;8.89;100.00;100826.47;5033359;28;20582;-76
2022/01/02 00:37:29;;;;;;;0.30;0.30;;;;;;;8.88;100.00;100823.81;5022274;28;20615;-76
2022/01/02 00:39:56;;;;;;;0.30;0.20;;;;;;;8.85;100.00;100830.06;5021047;28;20467;-76
2022/01/02 00:42:29;;;;;;;0.30;0.20;;;;;;;8.89;100.00;100823.81;5005609;28;20491;-76
2022/01/02 00:45:17;;;;;;;0.30;0.20;;;;;;;8.89;100.00;100818.50;5014358;28;20448;-76
2022/01/02 00:47:59;;;;;;;0.40;0.30;;;;;;;8.74;100.00;100812.53;5010866;28;20981;-76
2022/01/02 00:50:30;;;;;;;0.47;0.47;;;;;;;8.73;100.00;100810.78;5041212;28;20509;-76
2022/01/02 00:52:58;;;;;;;13.90;3.50;;;;;;;8.80;100.00;100788.63;5010228;28;20486;-76
2022/01/02 00:55:25;;;;;;;0.30;0.20;;;;;;;8.73;100.00;100785.16;5032486;28;20930;-76
2022/01/02 00:58:05;;;;;;;0.30;0.20;;;;;;;8.83;100.00;100796.53;5025600;28;20528;-76
2022/01/02 01:00:32;;;;;;;0.30;0.20;;;;;;;8.74;100.00;100791.31;5001351;28;20440;-76
2022/01/02 01:03:06;;;;;;;0.60;0.60;;;;;;;8.56;100.00;100782.72;5003919;28;20448;-76
2022/01/02 01:05:35;;;;;;;0.30;0.20;;;;;;;8.71;100.00;100797.56;5026464;28;20535;-76
2022/01/02 01:08:07;;;;;;;0.30;0.20;;;;;;;8.79;100.00;100797.47;5005718;28;20472;-76
2022/01/02 01:10:39;;;;;;;0.30;0.20;;;;;;;8.75;100.00;100798.38;5002828;28;20490;-77
2022/01/02 01:13:08;;;;;;;0.30;0.20;;;;;;;8.53;100.00;100790.72;5018734;28;20491;-76
2022/01/02 01:15:37;;;;;;;0.30;0.20;;;;;;;8.61;100.00;100791.47;5038711;28;20514;-76
2022/01/02 01:18:05;;;;;;;0.37;0.27;;;;;;;8.33;100.00;100771.47;5007457;28;20472;-76
2022/01/02 01:20:40;;;;;;;0.30;0.20;;;;;;;8.38;100.00;100774.13;5017717;28;20506;-76
2022/01/02 01:23:08;;;;;;;0.30;0.20;;;;;;;8.51;100.00;100775.75;5026873;28;20460;-76
2022/01/02 01:25:38;;;;;;;0.30;0.20;;;;;;;8.57;100.00;100786.25;5011106;28;20464;-78
2022/01/02 01:28:05;;;;;;;0.30;0.20;;;;;;;8.53;100.00;100780.13;5012400;28;20514;-76
2022/01/02 01:30:31;;;;;;;4.27;0.90;;;;;;;8.56;100.00;100776.53;5006367;28;20460;-76
2022/01/02 01:32:58;;;;;;;0.30;0.20;;;;;;;8.57;100.00;100773.88;5030829;28;20491;-76
2022/01/02 01:35:24;;;;;;;0.30;0.30;;;;;;;8.47;100.00;100766.06;5045107;28;20513;-77
2022/01/02 01:37:51;;;;;;;0.30;0.20;;;;;;;8.38;100.00;100772.34;5034849;28;20537;-76
2022/01/02 01:40:18;;;;;;;0.30;0.20;;;;;;;8.41;100.00;100764.38;4999411;28;20503;-76
2022/01/02 01:42:59;;;;;;;1.13;1.13;;;;;;;8.30;100.00;100759.16;5002584;28;20962;-76
2022/01/02 01:45:30;;;;;;;0.30;0.20;;;;;;;8.23;100.00;100762.78;5025946;28;20464;-76
2022/01/02 01:48:05;;;;;;;1.10;1.07;;;;;;;8.33;100.00;100775.00;5033832;28;20471;-76
2022/01/02 01:50:36;;;;;;;0.30;0.20;;;;;;;8.28;100.00;100779.50;5023698;28;20444;-77
2022/01/02 01:53:03;;;;;;;1.20;1.20;;;;;;;8.30;100.00;100777.69;5011614;28;20993;-76
2022/01/02 01:55:35;;;;;;;0.30;0.20;;;;;;;8.28;100.00;100768.91;5022502;28;20495;-76
2022/01/02 01:58:04;;;;;;;0.30;0.20;;;;;;;8.29;100.00;100769.78;5021965;28;20972;-76
2022/01/02 02:00:33;;;;;;;0.30;0.20;;;;;;;8.31;100.00;100775.94;5004674;28;20451;-76
2022/01/02 02:03:02;;;;;;;0.60;0.60;;;;;;;8.31;100.00;100752.97;5002276;28;20452;-76
2022/01/02 02:05:29;;;;;;;0.30;0.20;;;;;;;8.31;100.00;100752.09;5023338;28;20491;-76
2022/01/02 02:07:56;;;;;;;0.30;0.20;;;;;;;8.27;100.00;100735.38;5014827;28;20545;-76
2022/01/02 02:10:28;;;;;;;0.30;0.20;;;;;;;8.28;100.00;100734.47;5031819;28;20460;-76
2022/01/02 02:12:57;;;;;;;0.30;0.20;;;;;;;8.14;100.00;100735.53;5034902;28;20475;-76
2022/01/02 02:15:25;;;;;;;0.30;0.20;;;;;;;8.19;100.00;100745.16;5037431;28;20462;-77
2022/01/02 02:17:52;;;;;;;0.30;0.20;;;;;;;8.19;100.00;100729.28;5037862;28;20476;-76
2022/01/02 02:20:23;;;;;;;0.30;0.20;;;;;;;8.16;100.00;100724.03;5020603;28;20546;-76
2022/01/02 02:22:53;;;;;;;0.30;0.20;;;;;;;8.22;100.00;100728.34;5005247;28;20444;-76
2022/01/02 02:25:25;;;;;;;0.40;0.20;;;;;;;8.12;100.00;100724.09;5027202;28;20510;-76
2022/01/02 02:28:07;;;;;;;0.30;0.20;;;;;;;8.10;100.00;100720.59;5034929;28;20455;-76
2022/01/02 02:30:36;;;;;;;0.30;0.20;;;;;;;8.15;100.00;100721.41;5008017;28;20968;-76
2022/01/02 02:33:05;;;;;;;0.30;0.30;;;;;;;8.24;100.00;100726.59;5021901;28;20531;-76
2022/01/02 02:35:33;;;;;;;0.30;0.20;;;;;;;8.14;100.00;100738.19;5022707;28;20869;-76
2022/01/02 02:38:00;;;;;;;0.30;0.20;;;;;;;8.09;100.00;100753.25;5026588;28;20533;-76
2022/01/02 02:40:29;;;;;;;0.30;0.20;;;;;;;8.19;100.00;100747.81;5040334;28;20519;-76
2022/01/02 02:43:02;;;;;;;0.90;0.90;;;;;;;8.20;100.00;100738.97;5028936;28;20453;-76
2022/01/02 02:51:45;;;;;;;0.30;0.20;;;;;;;8.11;100.00;100731.16;4996112;28;20501;-76
2022/01/02 02:54:18;;;;;;;0.30;0.20;;;;;;;8.30;100.00;100722.09;5021395;28;20444;-76
2022/01/02 02:56:55;;;;;;;0.30;0.20;;;;;;;8.08;100.00;100723.22;5007325;28;20481;-76
2022/01/02 02:59:30;;;;;;;0.30;0.20;;;;;;;8.09;100.00;100716.19;5012365;28;20452;-76
2022/01/02 03:01:59;;;;;;;0.30;0.20;;;;;;;8.12;100.00;100716.13;5040983;28;20813;-76
2022/01/02 03:04:26;;;;;;;0.30;0.20;;;;;;;8.10;100.00;100708.22;5033500;28;20452;-76
2022/01/02 03:06:53;;;;;;;0.30;0.20;;;;;;;7.96;100.00;100700.44;5031957;28;20522;-76
2022/01/02 03:09:40;;;;;;;0.30;0.20;;;;;;;7.95;100.00;100690.75;5021770;28;20501;-77
2022/01/02 03:12:08;;;;;;;0.30;0.20;;;;;;;7.89;100.00;100682.84;5037778;28;20502;-76
2022/01/02 03:14:35;;;;;;;0.30;0.20;;;;;;;8.02;100.00;100673.88;5037774;28;20456;-76
2022/01/02 03:17:03;;;;;;;0.67;0.67;;;;;;;8.04;100.00;100673.84;5003441;28;20476;-76
2022/01/02 03:19:31;;;;;;;0.30;0.20;;;;;;;7.63;100.00;100675.19;5016413;28;20455;-76
2022/01/02 03:21:58;;;;;;;0.30;0.20;;;;;;;7.57;100.00;100674.41;5028557;28;21008;-76
2022/01/02 03:24:25;;;;;;;0.30;0.20;;;;;;;7.42;100.00;100672.78;4998976;28;20934;-76
2022/01/02 03:26:52;;;;;;;0.30;0.20;;;;;;;7.41;100.00;100657.81;5002767;28;20526;-76
2022/01/02 03:29:19;;;;;;;0.30;0.20;;;;;;;7.52;100.00;100662.97;5033594;28;20468;-76
2022/01/02 03:31:45;;;;;;;0.30;0.20;;;;;;;7.62;100.00;100667.28;5011423;28;21011;-76
2022/01/02 03:34:12;;;;;;;0.30;0.20;;;;;;;7.75;100.00;100681.25;5024458;28;20480;-76
2022/01/02 03:36:38;;;;;;;0.30;0.20;;;;;;;7.58;100.00;100662.94;5003088;28;21006;-76
2022/01/02 03:39:05;;;;;;;0.30;0.20;;;;;;;7.42;100.00;100654.28;5033742;28;20455;-76
2022/01/02 03:41:32;;;;;;;0.30;0.20;;;;;;;7.48;100.00;100658.63;5034396;28;20471;-76
2022/01/02 03:43:59;;;;;;;0.30;0.20;;;;;;;7.66;100.00;100659.28;5004526;28;20499;-76
2022/01/02 03:46:26;;;;;;;0.30;0.20;;;;;;;7.67;100.00;100662.81;4999076;28;20961;-76
2022/01/02 03:48:52;;;;;;;0.30;0.20;;;;;;;7.69;100.00;100650.47;4998822;28;20460;-76
2022/01/02 03:51:19;;;;;;;0.30;0.20;;;;;;;7.83;100.00;100653.84;5020826;28;20517;-76
2022/01/02 03:53:46;;;;;;;0.30;0.20;;;;;;;7.73;100.00;100662.75;5033736;28;20541;-76
2022/01/02 03:56:12;;;;;;;1.23;0.90;;;;;;;7.69;100.00;100650.47;5016529;28;20487;-76
2022/01/02 03:58:39;;;;;;;0.30;0.20;;;;;;;7.71;100.00;100651.31;5031429;28;20483;-76
2022/01/02 04:01:05;;;;;;;0.30;0.20;;;;;;;7.73;100.00;100650.41;5009231;28;20445;-76
2022/01/02 04:03:32;;;;;;;0.30;0.20;;;;;;;7.67;100.00;100649.56;5026001;28;20448;-76
2022/01/02 04:05:59;;;;;;;0.30;0.20;;;;;;;7.62;100.00;100643.47;5034084;28;20506;-76
2022/01/02 04:08:26;;;;;;;0.30;0.20;;;;;;;7.66;100.00;100647.81;5039882;28;20472;-76
2022/01/02 04:10:52;;;;;;;0.30;0.20;;;;;;;7.56;100.00;100635.63;5019693;28;20949;-77
2022/01/02 04:13:19;;;;;;;0.30;0.20;;;;;;;7.55;100.00;100637.38;5008602;28;20484;-77
2022/01/02 04:15:46;;;;;;;0.30;0.20;;;;;;;7.53;100.00;100631.22;5021243;28;20797;-76
2022/01/02 04:18:12;;;;;;;0.30;0.20;;;;;;;7.65;100.00;100622.28;5023682;28;20485;-76
2022/01/02 04:20:39;;;;;;;0.30;0.20;;;;;;;7.49;100.00;100624.22;5019374;28;20453;-76
2022/01/02 04:23:06;;;;;;;0.30;0.20;;;;;;;7.52;100.00;100629.47;5003601;28;20448;-76
2022/01/02 04:25:32;;;;;;;0.53;0.53;;;;;;;7.43;100.00;100611.06;5002262;28;20459;-76
2022/01/02 04:27:59;;;;;;;0.30;0.20;;;;;;;7.55;100.00;100615.34;5015934;28;20460;-76
2022/01/02 04:30:25;;;;;;;2.23;2.13;;;;;;;7.46;100.00;100618.09;5026252;28;20489;-76
2022/01/02 04:32:53;;;;;;;0.30;0.20;;;;;;;7.48;100.00;100617.16;5002631;28;20542;-76
2022/01/02 04:35:19;;;;;;;0.30;0.20;;;;;;;7.58;100.00;100633.81;5005501;28;20452;-76
2022/01/02 04:37:47;;;;;;;0.30;0.20;;;;;;;7.42;100.00;100622.53;5014219;28;20996;-76
2022/01/02 04:40:13;;;;;;;0.83;0.83;;;;;;;7.49;100.00;100620.69;5020324;28;20455;-76
2022/01/02 04:42:40;;;;;;;0.30;0.20;;;;;;;7.52;100.00;100618.00;5024158;28;20456;-76
2022/01/02 04:45:07;;;;;;;0.30;0.20;;;;;;;7.55;100.00;100625.94;5039517;28;20478;-76
2022/01/02 04:47:35;;;;;;;0.30;0.20;;;;;;;7.41;100.00;100619.03;5001671;28;20492;-76
2022/01/02 04:50:04;;;;;;;0.30;0.20;;;;;;;7.37;100.00;100614.63;5024928;28;20452;-76
2022/01/02 04:52:31;;;;;;;0.30;0.20;;;;;;;7.45;100.00;100600.47;5028369;28;20483;-76
2022/01/02 04:54:57;;;;;;;0.63;0.63;;;;;;;7.55;100.00;100591.53;5026033;28;20459;-76
2022/01/02 04:57:24;;;;;;;0.30;0.20;;;;;;;7.57;100.00;100602.97;5007745;28;20472;-76
2022/01/02 04:59:51;;;;;;;0.30;0.20;;;;;;;7.58;100.00;100599.44;5006812;28;20441;-76
2022/01/02 05:02:18;;;;;;;0.30;0.20;;;;;;;7.57;100.00;100590.63;5018955;28;20453;-76
2022/01/02 05:04:45;;;;;;;0.60;0.60;;;;;;;7.61;100.00;100596.75;5023953;28;20460;-76
2022/01/02 05:07:13;;;;;;;0.30;0.20;;;;;;;7.59;100.00;100588.84;5025767;28;20530;-76
2022/01/02 05:09:41;;;;;;;0.30;0.20;;;;;;;7.58;100.00;100599.44;5020234;28;20544;-76
2022/01/02 05:12:08;;;;;;;0.40;0.40;;;;;;;7.53;100.00;100595.94;5007481;28;20883;-76
2022/01/02 05:14:34;;;;;;;0.30;0.20;;;;;;;7.56;100.00;100593.28;5022094;28;21066;-77
2022/01/02 05:17:01;;;;;;;0.30;0.20;;;;;;;7.49;100.00;100599.53;5019275;28;20472;-76
2022/01/02 05:19:28;;;;;;;0.30;0.20;;;;;;;7.52;100.00;100608.31;5018481;28;20537;-76
2022/01/02 05:21:55;;;;;;;0.30;0.20;;;;;;;7.62;100.00;100596.72;5019301;28;20539;-76
2022/01/02 05:24:21;;;;;;;0.30;0.20;;;;;;;7.60;100.00;100595.00;5016174;28;20448;-76
2022/01/02 05:26:48;;;;;;;0.30;0.20;;;;;;;7.59;100.00;100594.13;5029531;28;20488;-76
2022/01/02 05:29:15;;;;;;;0.30;0.20;;;;;;;7.58;100.00;100592.38;4998449;28;20917;-76
2022/01/02 05:31:42;;;;;;;0.30;0.20;;;;;;;7.66;100.00;100606.38;5019389;28;20455;-76
2022/01/02 05:34:09;;;;;;;0.30;0.20;;;;;;;7.61;100.00;100612.63;5033885;28;21031;-76
2022/01/02 05:36:35;;;;;;;0.30;0.20;;;;;;;7.57;100.00;100614.44;5030113;28;20832;-76
2022/01/02 05:39:03;;;;;;;0.30;0.20;;;;;;;7.48;100.00;100609.22;5004092;28;20457;-76
2022/01/02 05:41:32;;;;;;;0.30;0.20;;;;;;;7.52;100.00;100596.84;5021194;28;20456;-76
2022/01/02 05:43:58;;;;;;;0.30;0.20;;;;;;;7.53;100.00;100585.38;5005577;28;20452;-76
2022/01/02 05:46:25;;;;;;;0.30;0.20;;;;;;;7.43;100.00;100582.84;5029793;28;21007;-76
2022/01/02 05:48:52;;;;;;;0.30;0.20;;;;;;;7.49;100.00;100581.00;5013994;28;20456;-76
2022/01/02 05:51:19;;;;;;;0.30;0.23;;;;;;;7.57;100.00;100573.88;5023808;28;20491;-76
2022/01/02 05:53:45;;;;;;;0.30;0.20;;;;;;;7.61;100.00;100572.94;5023747;28;21000;-76
2022/01/02 05:56:12;;;;;;;0.30;0.20;;;;;;;7.58;100.00;100575.63;5020111;28;20456;-76
2022/01/02 05:58:39;;;;;;;0.30;0.20;;;;;;;7.55;100.00;100578.31;5027516;28;20479;-76
2022/01/02 06:01:05;;;;;;;0.30;0.20;;;;;;;7.52;100.00;100573.91;5026944;28;20574;-76
2022/01/02 06:03:33;;;;;;;0.30;0.20;;;;;;;7.39;100.00;100565.25;5022638;28;20476;-76
2022/01/02 06:06:00;;;;;;;1.73;1.63;;;;;;;7.55;100.00;100565.97;5029125;28;20444;-76
2022/01/02 06:08:26;;;;;;;0.30;0.20;;;;;;;7.31;100.00;100572.41;5027924;28;20471;-76
2022/01/02 06:10:53;;;;;;;0.30;0.20;;;;;;;7.38;100.00;100560.84;5030525;28;20863;-76
2022/01/02 06:13:20;;;;;;;0.30;0.20;;;;;;;7.39;100.00;100565.25;5026803;28;20479;-76
2022/01/02 06:15:47;;;;;;;0.67;0.67;;;;;;;7.46;100.00;100560.78;5023467;28;20455;-76
2022/01/02 06:18:14;;;;;;;0.30;0.20;;;;;;;7.41;100.00;100546.75;5027917;28;20476;-76
2022/01/02 06:20:41;;;;;;;0.30;0.20;;;;;;;7.34;100.00;100559.13;5017063;28;20522;-76
2022/01/02 06:23:07;;;;;;;0.30;0.20;;;;;;;7.50;100.00;100551.03;5015925;28;20515;-76
2022/01/02 06:25:34;;;;;;;0.30;0.20;;;;;;;7.40;100.00;100544.97;5034189;28;20459;-76
2022/01/02 06:28:01;;;;;;;0.30;0.20;;;;;;;7.29;100.00;100547.75;5029942;28;20471;-76
2022/01/02 06:30:28;;;;;;;0.30;0.20;;;;;;;7.16;100.00;100524.13;5021763;28;20853;-76
2022/01/02 06:32:55;;;;;;;0.30;0.20;;;;;;;7.07;100.00;100535.66;5021271;28;20519;-75
2022/01/02 06:35:23;;;;;;;0.30;0.20;;;;;;;7.17;100.00;100539.94;5022549;28;21955;-76
2022/01/02 06:37:51;;;;;;;0.30;0.27;;;;;;;7.19;100.00;100545.22;5034200;28;20480;-76
2022/01/02 06:40:18;;;;;;;0.30;0.20;;;;;;;7.25;100.00;100555.72;5031559;28;20482;-76
2022/01/02 06:42:46;;;;;;;0.30;0.20;;;;;;;7.23;100.00;100536.34;5029415;28;20452;-76
2022/01/02 06:45:12;;;;;;;0.30;0.20;;;;;;;7.09;100.00;100544.44;5026457;28;20445;-76
2022/01/02 06:47:39;;;;;;;0.30;0.20;;;;;;;7.03;100.00;100542.75;5009968;28;20476;-76
2022/01/02 06:50:07;;;;;;;1.23;0.93;;;;;;;7.06;100.00;100545.34;5016747;28;20489;-75
2022/01/02 06:52:33;;;;;;;0.30;0.20;;;;;;;7.09;100.00;100529.44;5009949;28;20456;-76
2022/01/02 06:55:00;;;;;;;0.30;0.20;;;;;;;7.05;100.00;100537.44;5009625;28;20823;-76
2022/01/02 06:57:27;;;;;;;0.30;0.20;;;;;;;7.04;100.00;100540.97;5013996;28;20980;-77
2022/01/02 06:59:53;;;;;;;0.30;0.20;;;;;;;6.97;100.00;100524.28;5025387;28;20852;-76
2022/01/02 07:02:20;;;;;;;0.30;0.20;;;;;;;7.05;100.00;100519.81;5018212;28;20522;-76
2022/01/02 07:04:47;;;;;;;0.30;0.20;;;;;;;7.13;100.00;100525.03;5014435;28;20834;-76
2022/01/02 07:07:13;;;;;;;0.30;0.20;;;;;;;7.15;100.00;100525.88;5021055;28;20506;-76
2022/01/02 07:09:40;;;;;;;0.30;0.20;;;;;;;7.15;100.00;100519.72;5024676;28;20510;-76
2022/01/02 07:12:07;;;;;;;0.30;0.20;;;;;;;7.13;100.00;100527.66;5027446;28;20441;-76
2022/01/02 07:14:34;;;;;;;0.30;0.20;;;;;;;7.14;100.00;100524.13;5003517;28;20576;-77
2022/01/02 07:17:00;;;;;;;0.30;0.20;;;;;;;7.01;100.00;100531.31;5027024;28;20547;-77
2022/01/02 07:19:27;;;;;;;0.30;0.20;;;;;;;7.16;100.00;100519.69;5006043;28;20601;-76
2022/01/02 07:21:57;;;;;;;3.43;2.33;;;;;;;7.14;100.00;100518.84;5020741;28;20452;-77
2022/01/02 07:24:25;;;;;;;0.30;0.20;;;;;;;7.20;100.00;100516.13;5030022;28;20466;-76
2022/01/02 07:26:52;;;;;;;0.30;0.20;;;;;;;7.13;100.00;100514.44;5019882;28;20523;-77
2022/01/02 07:29:19;;;;;;;0.30;0.20;;;;;;;7.21;100.00;100515.22;5025048;28;20495;-77
2022/01/02 07:31:46;;;;;;;0.30;0.20;;;;;;;7.31;100.00;100521.28;5024147;28;20448;-76
2022/01/02 07:34:13;;;;;;;0.30;0.20;;;;;;;7.30;100.00;100507.19;5029693;28;20487;-76
2022/01/02 07:36:44;;;;;;;0.30;0.20;;;;;;;7.28;100.00;100508.13;5022224;28;20946;-77
2022/01/02 07:39:15;;;;;;;0.30;0.20;;;;;;;7.28;100.00;100509.00;5007989;28;20444;-76
2022/01/02 07:41:42;;;;;;;0.30;0.20;;;;;;;7.23;100.00;100497.56;5018209;28;20870;-76
2022/01/02 07:44:09;;;;;;;0.30;0.20;;;;;;;7.28;100.00;100497.53;5013778;28;20881;-76
2022/01/02 07:46:35;;;;;;;0.30;0.20;;;;;;;7.21;100.00;100504.66;5019837;28;20514;-76
2022/01/02 07:49:02;;;;;;;0.30;0.20;;;;;;;7.24;100.00;100501.09;5002325;28;20911;-76
2022/01/02 07:51:29;;;;;;;0.30;0.20;;;;;;;7.17;100.00;100495.00;5014840;28;20502;-77
2022/01/02 07:53:56;;;;;;;0.30;0.20;;;;;;;7.06;100.00;100499.53;5022773;28;20492;-77
2022/01/02 07:56:24;;;;;;;0.30;0.20;;;;;;;7.17;100.00;100507.34;5002465;28;20514;-77
2022/01/02 07:58:51;;;;;;;0.30;0.20;;;;;;;7.08;100.00;100490.69;5025993;28;21862;-77
2022/01/02 08:01:19;;;;;;;0.30;0.20;;;;;;;7.11;100.00;100488.00;5025933;28;20512;-77
2022/01/02 08:03:46;;;;;;;0.30;0.20;;;;;;;7.02;100.00;100474.03;4999795;28;20456;-77
2022/01/02 08:06:13;;;;;;;0.30;0.20;;;;;;;7.19;100.00;100485.28;5018226;28;20518;-77
2022/01/02 08:08:40;;;;;;;0.30;0.20;;;;;;;7.19;100.00;100477.38;5018654;28;20554;-77
2022/01/02 08:11:07;;;;;;;0.30;0.20;;;;;;;7.18;100.00;100472.97;5020952;28;21033;-77
2022/01/02 08:13:34;;;;;;;0.30;0.20;;;;;;;7.17;100.00;100465.06;5035970;28;20498;-77
2022/01/02 08:16:00;;;;;;;0.40;0.37;;;;;;;7.29;100.00;100473.72;5013991;28;20475;-77
2022/01/02 08:18:27;;;;;;;0.30;0.20;;;;;;;7.20;100.00;100468.53;5016101;28;20483;-76
2022/01/02 08:20:54;;;;;;;0.30;0.20;;;;;;;7.33;100.00;100462.19;5021407;28;20443;-76
2022/01/02 08:23:21;;;;;;;0.30;0.20;;;;;;;7.32;100.00;100460.44;5036965;28;20442;-77
2022/01/02 08:26:05;;;;;;;0.30;0.20;;;;;;;7.32;100.00;100460.44;5023315;28;20484;-77
2022/01/02 08:28:33;;;;;;;0.83;0.73;;;;;;;7.35;100.00;100467.47;5028617;28;20472;-76
2022/01/02 08:30:59;;;;;;;0.30;0.20;;;;;;;7.37;100.00;100466.56;5023610;28;20502;-77
2022/01/02 08:33:26;;;;;;;0.30;0.20;;;;;;;7.41;100.00;100451.53;5019606;28;20487;-78
2022/01/02 08:35:53;;;;;;;0.30;0.20;;;;;;;7.44;100.00;100448.84;5022491;28;20449;-77
2022/01/02 08:38:19;;;;;;;0.30;0.20;;;;;;;7.39;100.00;100462.13;5024086;28;20480;-76
2022/01/02 08:40:47;;;;;;;0.43;0.40;;;;;;;7.31;100.00;100465.78;5024359;28;20459;-77
2022/01/02 08:43:14;;;;;;;0.30;0.20;;;;;;;7.38;100.00;100467.41;5007804;28;20878;-77
2022/01/02 08:45:41;;;;;;;0.30;0.20;;;;;;;7.39;100.00;100459.47;5027895;28;20451;-76
2022/01/02 08:48:07;;;;;;;0.30;0.20;;;;;;;7.49;100.00;100449.66;5019337;28;20833;-77
2022/01/02 08:50:34;;;;;;;0.60;0.57;;;;;;;7.54;100.00;100445.19;5014890;28;20447;-77
2022/01/02 08:53:01;;;;;;;0.30;0.20;;;;;;;7.54;100.00;100446.94;5020261;28;20457;-76
2022/01/02 08:55:28;;;;;;;0.30;0.20;;;;;;;7.54;100.00;100428.41;5028371;28;20495;-76
2022/01/02 08:57:54;;;;;;;0.30;0.20;;;;;;;7.95;100.00;100422.53;5032546;28;20810;-77
2022/01/02 09:00:22;;;;;;;0.30;0.20;;;;;;;7.94;100.00;100416.34;5002258;28;20854;-77
2022/01/02 09:02:49;;;;;;;0.30;0.20;;;;;;;7.88;100.00;100420.88;5018874;28;20443;-76
2022/01/02 09:05:15;;;;;;;0.30;0.20;;;;;;;7.82;100.00;100418.34;5038195;28;20475;-77
2022/01/02 09:07:42;;;;;;;0.30;0.20;;;;;;;7.92;100.00;100423.44;5032182;28;20976;-76
2022/01/02 09:10:08;;;;;;;0.30;0.20;;;;;;;8.08;100.00;100432.00;5032481;28;20910;-77
2022/01/02 09:12:35;;;;;;;0.30;0.20;;;;;;;7.83;100.00;100423.59;5019378;28;20448;-77
2022/01/02 09:15:02;;;;;;;0.40;0.40;;;;;;;7.97;100.00;100411.03;5019264;28;20495;-76
2022/01/02 09:17:29;;;;;;;0.30;0.20;;;;;;;7.96;100.00;100411.94;5003624;28;20538;-76
2022/01/02 09:19:57;;;;;;;0.30;0.20;;;;;;;8.08;100.00;100428.47;5008712;28;20443;-78
2022/01/02 09:22:24;;;;;;;0.30;0.20;;;;;;;8.04;100.00;100411.78;5026034;28;20501;-77
2022/01/02 09:24:52;;;;;;;0.30;0.20;;;;;;;7.99;100.00;100433.03;5028608;28;20455;-77
2022/01/02 09:27:18;;;;;;;0.30;0.20;;;;;;;7.89;100.00;100420.84;5014405;28;20534;-77
2022/01/02 09:29:45;;;;;;;0.30;0.20;;;;;;;7.93;100.00;100413.72;5019729;28;20440;-77
2022/01/02 09:32:12;;;;;;;0.40;0.30;;;;;;;8.03;100.00;100426.78;5046820;28;20502;-77
2022/01/02 09:34:38;;;;;;;0.30;0.30;;;;;;;8.18;100.00;100467.16;5034456;28;20491;-77
2022/01/02 09:37:05;;;;;;;0.30;0.20;;;;;;;8.22;100.00;100475.06;5007057;28;20482;-77
2022/01/02 09:39:32;;;;;;;0.77;0.77;;;;;;;8.06;100.00;100467.34;5022533;28;20499;-77
2022/01/02 09:42:06;;;;;;;0.30;0.20;;;;;;;8.26;100.00;100459.97;5026302;28;20444;-77
2022/01/02 09:44:33;;;;;;;0.30;0.20;;;;;;;8.19;100.00;100480.38;5032438;28;20444;-77
2022/01/02 09:46:59;;;;;;;0.30;0.20;;;;;;;8.33;100.00;100474.84;5025818;28;20468;-77
2022/01/02 09:49:27;;;;;;;0.30;0.20;;;;;;;8.29;100.00;100473.16;5032914;28;20435;-77
2022/01/02 09:51:54;;;;;;;0.30;0.20;;;;;;;8.44;100.00;100480.88;5045768;28;20439;-76
2022/01/02 09:54:20;;;;;;;0.30;0.30;;;;;;;8.37;100.00;100459.84;5013891;28;21075;-77
2022/01/02 09:56:47;;;;;;;0.30;0.20;;;;;;;8.72;100.00;100452.13;5032786;28;20468;-77
2022/01/02 09:59:14;;;;;;;0.30;0.20;;;;;;;8.55;100.00;100463.03;5026214;28;20445;-77
2022/01/02 10:01:42;;;;;;;0.30;0.20;;;;;;;8.52;100.00;100456.94;5008078;28;20478;-76
2022/01/02 10:04:10;;;;;;;0.30;0.20;;;;;;;8.58;100.00;100446.22;5031379;28;20953;-77
2022/01/02 10:06:48;;;;;;;0.30;0.20;;;;;;;8.61;100.00;100424.94;5020759;28;20444;-77
2022/01/02 10:09:33;;;;;;;0.30;0.20;;;;;;;8.42;100.00;100418.25;5010602;28;20443;-77
2022/01/02 10:12:21;;;;;;;0.30;0.20;;;;;;;8.42;100.00;100397.94;5044452;28;20443;-77
2022/01/02 10:15:08;;;;;;;0.30;0.20;;;;;;;8.50;100.00;100382.78;5007642;28;20522;-77
2022/01/02 10:17:59;;;;;;;0.30;0.20;;;;;;;9.12;100.00;100379.78;5021907;28;20557;-77
2022/01/02 10:20:31;;;;;;;0.30;0.20;;;;;;;8.71;100.00;100372.66;5031352;28;20448;-78
2022/01/02 10:23:00;;;;;;;0.30;0.20;;;;;;;8.63;100.00;100369.28;4997804;28;20455;-77
2022/01/02 10:25:36;;;;;;;0.30;0.20;;;;;;;8.81;100.00;100359.22;5030560;28;20501;-77
2022/01/02 10:28:19;;;;;;;0.30;0.20;;;;;;;8.86;100.00;100349.38;5035209;28;21184;-77
2022/01/02 10:30:51;;;;;;;0.30;0.20;;;;;;;8.98;100.00;100342.06;5044381;28;20455;-78
2022/01/02 10:33:18;;;;;;;0.70;0.60;;;;;;;9.08;100.00;100347.16;5003952;28;21131;-77
2022/01/02 10:35:45;;;;;;;0.30;0.20;;;;;;;8.88;100.00;100351.97;5034944;28;20850;-77
2022/01/02 10:38:18;;;;;;;0.70;0.70;;;;;;;8.90;100.00;100342.22;5036907;28;20519;-77
2022/01/02 10:40:45;;;;;;;0.30;0.20;;;;;;;9.09;100.00;100318.84;5022670;28;20514;-77
2022/01/02 10:43:33;;;;;;;0.30;0.20;;;;;;;9.02;100.00;100286.28;5010268;28;20825;-77
2022/01/02 10:46:06;;;;;;;0.30;0.20;;;;;;;9.25;100.00;100275.16;5029466;28;20432;-78
2022/01/02 10:48:40;;;;;;;0.30;0.20;;;;;;;9.39;100.00;100288.97;5025503;28;20534;-77
2022/01/02 10:51:17;;;;;;;0.30;0.20;;;;;;;9.46;100.00;100306.50;5031734;28;20440;-77
2022/01/02 10:53:55;;;;;;;0.30;0.20;;;;;;;9.57;100.00;100303.56;5023482;28;20444;-77
2022/01/02 10:56:25;;;;;;;0.40;0.40;;;;;;;9.75;100.00;100315.53;5019974;28;21020;-77
2022/01/02 10:58:57;;;;;;;0.30;0.20;;;;;;;9.88;100.00;100303.69;5033335;28;20506;-77
2022/01/02 11:01:24;;;;;;;0.30;0.20;;;;;;;9.99;100.00;100296.31;5022293;28;20460;-77
2022/01/02 11:03:52;;;;;;;0.30;0.20;;;;;;;10.27;100.00;100292.94;5034285;28;20444;-77
2022/01/02 11:06:31;;;;;;;0.30;0.20;;;;;;;9.97;100.00;100273.38;5026045;28;20988;-77
2022/01/02 11:08:59;;;;;;;0.30;0.20;;;;;;;9.97;100.00;100266.28;5010539;28;20519;-77
2022/01/02 11:11:25;;;;;;;0.30;0.20;;;;;;;10.06;100.00;100297.91;5024769;28;20929;-77
2022/01/02 11:13:52;;;;;;;0.30;0.20;;;;;;;10.19;100.00;100300.25;5016932;28;20475;-77
2022/01/02 11:16:19;;;;;;;0.30;0.20;;;;;;;10.28;100.00;100289.38;5007391;28;20448;-77
2022/01/02 11:18:47;;;;;;;0.30;0.20;;;;;;;10.61;100.00;100259.22;5035928;28;20960;-77
2022/01/02 11:21:14;;;;;;;0.33;0.27;;;;;;;10.38;100.00;100257.19;5022610;28;20471;-77
2022/01/02 11:23:53;;;;;;;0.30;0.30;;;;;;;10.41;100.00;100242.06;5010262;28;20950;-78
2022/01/02 11:26:57;;;;;;;0.30;0.20;;;;;;;10.52;100.00;100246.19;5002968;28;20491;-77
2022/01/02 11:29:29;;;;;;;0.40;0.30;;;;;;;10.50;100.00;100269.28;5026053;28;20455;-77
2022/01/02 11:31:56;;;;;;;0.30;0.20;;;;;;;10.61;100.00;100285.78;5027435;28;20453;-78
2022/01/02 11:34:25;;;;;;;0.30;0.20;;;;;;;10.87;100.00;100287.69;5027993;28;20951;-76
2022/01/02 11:37:13;;;;;;;0.30;0.20;;;;;;;11.15;100.00;100292.16;5027587;28;20476;-77
2022/01/02 11:39:54;;;;;;;0.70;0.70;;;;;;;11.04;100.00;100308.44;5030166;28;20493;-77